createdAt,value
2019-04-24T00:00:24.212Z,14.90
2019-04-24T00:03:13.274Z,14.90
2019-04-24T00:08:30.526Z,14.90
2019-04-24T00:11:30.974Z,14.90
2019-04-24T00:14:07.159Z,14.90
2019-04-24T00:19:20.092Z,14.70
2019-04-24T00:21:49.582Z,14.50
2019-04-24T00:24:20.654Z,14.50
2019-04-24T00:27:01.481Z,14.50
2019-04-24T00:29:35.998Z,14.40
2019-04-24T00:34:41.693Z,14.50
2019-04-24T00:39:52.744Z,14.50
2019-04-24T00:53:07.349Z,14.30
2019-04-24T00:55:16.090Z,14.30
2019-04-24T00:57:56.166Z,14.30
2019-04-24T01:00:34.526Z,14.30
2019-04-24T01:03:44.135Z,14.30
2019-04-24T01:09:04.660Z,14.30
2019-04-24T01:14:09.147Z,14.30
2019-04-24T01:16:34.500Z,14.10
2019-04-24T01:19:10.458Z,14.20
2019-04-24T01:27:01.369Z,14.10
2019-04-24T01:29:33.535Z,14.00
2019-04-24T01:32:09.105Z,14.00
2019-04-24T01:37:48.027Z,14.00
2019-04-24T01:40:34.110Z,14.00
2019-04-24T01:43:18.155Z,14.00
2019-04-24T01:46:01.803Z,14.00
2019-04-24T01:50:54.400Z,13.90
2019-04-24T01:56:08.933Z,14.30
2019-04-24T02:01:14.509Z,14.00
2019-04-24T02:03:51.449Z,13.90
2019-04-24T02:06:33.438Z,13.80
2019-04-24T02:09:07.201Z,13.80
2019-04-24T02:12:00.261Z,13.80
2019-04-24T02:17:16.318Z,13.60
2019-04-24T02:19:47.766Z,13.50
2019-04-24T02:22:24.329Z,13.50
2019-04-24T02:24:56.051Z,13.60
2019-04-24T02:27:29.431Z,13.40
2019-04-24T02:30:02.615Z,13.40
2019-04-24T02:36:31.924Z,13.50
2019-04-24T03:00:27.515Z,13.10
2019-04-24T03:08:35.397Z,13.10
2019-04-24T03:10:45.766Z,13.20
2019-04-24T03:13:53.893Z,13.30
2019-04-24T03:16:51.997Z,13.40
2019-04-24T03:19:32.992Z,13.40
2019-04-24T03:24:40.137Z,13.50
2019-04-24T03:38:09.350Z,13.20
2019-04-24T03:56:06.888Z,12.60
2019-04-24T03:59:03.165Z,12.60
2019-04-24T04:04:21.810Z,12.60
2019-04-24T04:09:39.656Z,12.50
2019-04-24T04:17:34.743Z,12.60
2019-04-24T04:19:48.901Z,12.50
2019-04-24T04:25:26.930Z,12.70
2019-04-24T04:34:04.479Z,12.50
2019-04-24T04:36:34.119Z,12.40
2019-04-24T04:38:45.320Z,12.40
2019-04-24T04:41:46.145Z,12.50
2019-04-24T04:44:16.480Z,12.50
2019-04-24T04:58:22.395Z,12.70
2019-04-24T05:01:29.092Z,12.70
2019-04-24T05:11:46.839Z,12.80
2019-04-24T05:29:59.031Z,15.90
2019-04-24T05:35:49.967Z,16.60
2019-04-24T05:41:10.040Z,15.80
2019-04-24T05:43:50.527Z,15.30
2019-04-24T05:46:24.435Z,15.20
2019-04-24T05:48:59.223Z,15.30
2019-04-24T05:54:48.019Z,15.80
2019-04-24T06:07:12.018Z,18.30
2019-04-24T06:09:46.538Z,18.70
2019-04-24T06:12:17.707Z,19.10
2019-04-24T06:15:20.631Z,19.40
2019-04-24T06:18:10.767Z,19.40
2019-04-24T06:20:49.996Z,19.30
2019-04-24T06:23:45.805Z,19.10
2019-04-24T06:28:41.614Z,19.30
2019-04-24T06:31:02.735Z,19.60
2019-04-24T06:33:43.041Z,20.40
2019-04-24T06:36:59.413Z,20.30
2019-04-24T06:39:35.688Z,20.20
2019-04-24T06:47:45.829Z,20.50
2019-04-24T06:49:56.239Z,20.00
2019-04-24T06:52:45.645Z,20.10
2019-04-24T06:54:52.608Z,19.80
2019-04-24T06:57:27.490Z,20.10
2019-04-24T07:03:00.300Z,20.70
2019-04-24T07:06:01.405Z,20.90
2019-04-24T07:09:02.242Z,21.20
2019-04-24T07:14:51.695Z,20.00
2019-04-24T07:17:27.365Z,20.30
2019-04-24T07:19:57.615Z,20.50
2019-04-24T07:22:31.563Z,20.20
2019-04-24T07:25:29.320Z,20.90
2019-04-24T07:27:57.633Z,21.00
2019-04-24T07:31:02.414Z,21.40
2019-04-24T07:33:28.006Z,20.60
2019-04-24T07:46:40.748Z,21.80
2019-04-24T07:49:34.095Z,22.20
2019-04-24T07:52:04.167Z,21.90
2019-04-24T08:00:06.528Z,22.30
2019-04-24T08:05:18.011Z,22.00
2019-04-24T08:16:10.672Z,22.90
2019-04-24T08:18:27.823Z,23.30
2019-04-24T08:20:58.714Z,23.40
2019-04-24T08:26:10.102Z,23.30
2019-04-24T08:37:03.674Z,23.50
2019-04-24T08:45:10.946Z,23.60
2019-04-24T08:50:57.493Z,22.90
2019-04-24T08:53:02.050Z,23.50
2019-04-24T08:55:40.218Z,24.00
2019-04-24T09:01:06.730Z,23.80
2019-04-24T09:03:55.683Z,23.30
2019-04-24T09:06:21.874Z,23.50
2019-04-24T09:09:21.238Z,23.70
2019-04-24T09:14:39.694Z,23.50
2019-04-24T09:17:34.953Z,23.00
2019-04-24T09:20:04.149Z,22.80
2019-04-24T09:22:29.880Z,22.70
2019-04-24T09:25:30.428Z,22.20
2019-04-24T09:27:56.568Z,22.40
2019-04-24T09:30:52.169Z,22.30
2019-04-24T09:33:34.210Z,22.50
2019-04-24T09:38:50.683Z,23.20
2019-04-24T09:44:00.948Z,22.90
2019-04-24T09:46:38.120Z,22.90
2019-04-24T09:49:07.049Z,23.30
2019-04-24T09:51:47.810Z,23.30
2019-04-24T09:54:49.904Z,23.30
2019-04-24T09:59:47.838Z,23.30
2019-04-24T10:02:48.444Z,23.80
2019-04-24T10:05:57.369Z,24.00
2019-04-24T10:08:21.127Z,24.10
2019-04-24T10:13:39.907Z,23.60
2019-04-24T10:16:00.667Z,23.50
2019-04-24T10:21:44.010Z,22.70
2019-04-24T10:24:25.026Z,22.90
2019-04-24T10:27:10.618Z,23.50
2019-04-24T10:32:46.453Z,23.50
2019-04-24T10:35:33.358Z,23.20
2019-04-24T10:44:00.756Z,22.60
2019-04-24T10:46:47.354Z,22.80
2019-04-24T10:49:38.698Z,22.90
2019-04-24T10:52:05.292Z,22.90
2019-04-24T10:54:59.491Z,23.20
2019-04-24T11:00:00.657Z,23.00
2019-04-24T11:02:49.640Z,23.00
2019-04-24T11:11:35.950Z,23.00
2019-04-24T11:17:25.391Z,22.90
2019-04-24T11:20:33.945Z,23.30
2019-04-24T11:28:53.778Z,23.70
2019-04-24T11:35:09.895Z,24.00
2019-04-24T11:37:51.894Z,24.00
2019-04-24T11:43:25.811Z,24.10
2019-04-24T11:46:29.703Z,24.20
2019-04-24T11:49:20.988Z,24.00
2019-04-24T11:52:23.823Z,24.00
2019-04-24T11:55:07.946Z,23.80
2019-04-24T11:57:59.131Z,24.20
2019-04-24T11:59:50.818Z,24.10
2019-04-24T12:05:59.331Z,24.00
2019-04-24T12:11:10.943Z,24.30
2019-04-24T12:16:45.336Z,24.20
2019-04-24T12:19:26.665Z,24.40
2019-04-24T12:22:03.987Z,24.40
2019-04-24T12:24:43.785Z,24.50
2019-04-24T12:27:17.660Z,24.60
2019-04-24T12:30:02.246Z,24.60
2019-04-24T12:32:36.750Z,24.50
2019-04-24T12:38:10.721Z,24.70
2019-04-24T12:40:49.913Z,24.80
2019-04-24T12:43:24.320Z,24.90
2019-04-24T12:46:17.647Z,24.80
2019-04-24T13:03:02.760Z,24.90
2019-04-24T13:08:11.591Z,25.00
2019-04-24T13:10:47.245Z,24.90
2019-04-24T13:13:39.332Z,24.70
2019-04-24T13:16:26.830Z,24.90
2019-04-24T13:21:12.447Z,25.10
2019-04-24T13:23:53.323Z,25.00
2019-04-24T13:26:57.138Z,25.00
2019-04-24T13:30:13.721Z,25.00
2019-04-24T13:33:14.535Z,25.10
2019-04-24T13:40:47.223Z,25.20
2019-04-24T13:43:25.140Z,25.20
2019-04-24T13:48:33.314Z,25.20
2019-04-24T13:51:07.021Z,25.00
2019-04-24T13:56:03.044Z,24.90
2019-04-24T13:58:44.327Z,24.80
2019-04-24T14:01:37.107Z,24.80
2019-04-24T14:06:50.045Z,24.90
2019-04-24T14:09:14.137Z,25.00
2019-04-24T14:19:47.569Z,25.20
2019-04-24T14:22:13.683Z,25.20
2019-04-24T14:25:00.835Z,25.20
2019-04-24T14:27:52.285Z,25.30
2019-04-24T14:32:42.284Z,25.50
2019-04-24T14:35:18.427Z,25.70
2019-04-24T14:37:51.126Z,25.60
2019-04-24T14:40:21.781Z,25.50
2019-04-24T14:43:00.137Z,25.40
2019-04-24T14:46:03.626Z,25.30
2019-04-24T14:48:16.778Z,25.70
2019-04-24T14:50:39.708Z,25.80
2019-04-24T14:53:21.945Z,25.60
2019-04-24T14:55:55.056Z,25.50
2019-04-24T14:58:28.596Z,25.30
2019-04-24T15:01:14.702Z,25.40
2019-04-24T15:03:41.937Z,25.70
2019-04-24T15:09:04.212Z,26.00
2019-04-24T15:11:34.055Z,26.30
2019-04-24T15:14:11.705Z,26.40
2019-04-24T15:25:02.842Z,25.50
2019-04-24T15:27:44.419Z,25.30
2019-04-24T15:29:54.948Z,25.00
2019-04-24T15:32:35.368Z,24.90
2019-04-24T15:35:18.238Z,25.00
2019-04-24T15:37:43.429Z,25.10
2019-04-24T15:40:35.380Z,24.90
2019-04-24T15:43:02.560Z,24.80
2019-04-24T15:45:24.834Z,24.70
2019-04-24T15:50:43.848Z,24.60
2019-04-24T15:52:40.946Z,24.60
2019-04-24T15:55:31.402Z,24.50
2019-04-24T15:58:09.623Z,24.60
2019-04-24T16:01:15.051Z,24.60
2019-04-24T16:06:09.604Z,24.70
2019-04-24T16:08:43.230Z,24.60
2019-04-24T16:11:16.089Z,24.70
2019-04-24T16:13:58.599Z,24.80
2019-04-24T16:19:35.050Z,24.70
2019-04-24T16:22:01.260Z,24.80
2019-04-24T16:27:11.446Z,24.60
2019-04-24T16:29:55.017Z,24.60
2019-04-24T16:37:29.905Z,24.80
2019-04-24T16:43:20.435Z,21.00
2019-04-24T16:49:15.991Z,19.50
2019-04-24T16:51:38.507Z,19.10
2019-04-24T16:54:06.159Z,19.00
2019-04-24T16:56:44.348Z,18.70
2019-04-24T16:59:09.682Z,18.50
2019-04-24T17:04:32.545Z,18.40
2019-04-24T17:07:02.758Z,18.10
2019-04-24T17:14:53.365Z,17.80
2019-04-24T17:17:47.798Z,17.70
2019-04-24T17:21:12.055Z,17.50
2019-04-24T17:26:07.554Z,17.50
2019-04-24T17:28:33.311Z,17.40
2019-04-24T17:33:42.679Z,16.50
2019-04-24T17:36:17.704Z,15.70
2019-04-24T17:38:38.779Z,14.90
2019-04-24T17:41:15.451Z,14.20
2019-04-24T17:44:29.838Z,13.50
2019-04-24T17:46:52.308Z,13.00
2019-04-24T17:54:26.481Z,12.50
2019-04-24T17:59:17.919Z,12.30
2019-04-24T18:01:52.485Z,12.20
2019-04-24T18:04:25.340Z,12.30
2019-04-24T18:06:58.358Z,12.30
2019-04-24T18:09:32.224Z,12.30
2019-04-24T18:12:05.462Z,12.40
2019-04-24T18:14:40.510Z,12.40
2019-04-24T18:17:13.744Z,12.50
2019-04-24T18:19:46.656Z,12.50
2019-04-24T18:22:19.670Z,12.50
2019-04-24T18:25:11.156Z,12.50
2019-04-24T18:27:44.924Z,12.50
2019-04-24T18:30:19.927Z,12.50
2019-04-24T18:32:52.828Z,12.50
2019-04-24T18:35:26.890Z,12.60
2019-04-24T18:38:06.781Z,12.60
2019-04-24T18:40:34.653Z,12.60
2019-04-24T18:43:08.133Z,12.60
2019-04-24T18:45:42.224Z,12.60
2019-04-24T18:48:15.395Z,12.60
2019-04-24T18:50:48.314Z,12.60
2019-04-24T18:53:21.495Z,12.60
2019-04-24T18:55:54.352Z,12.50
2019-04-24T18:58:27.266Z,12.40
2019-04-24T19:01:00.132Z,12.20
2019-04-24T19:03:33.130Z,11.90
2019-04-24T19:06:20.013Z,11.70
2019-04-24T19:08:42.009Z,11.50
2019-04-24T19:11:15.177Z,11.40
2019-04-24T19:13:51.273Z,11.30
2019-04-24T19:16:24.258Z,11.10
2019-04-24T19:18:57.379Z,11.10
2019-04-24T19:21:31.643Z,11.10
2019-04-24T19:24:05.169Z,11.10
2019-04-24T19:26:38.197Z,11.10
2019-04-24T19:29:11.295Z,11.20
2019-04-24T19:31:44.233Z,11.30
2019-04-24T19:34:17.292Z,11.30
2019-04-24T19:36:50.440Z,11.40
2019-04-24T19:39:23.626Z,11.40
2019-04-24T19:41:56.613Z,11.40
2019-04-24T19:44:31.324Z,11.40
2019-04-24T19:47:04.478Z,11.50
2019-04-24T19:49:37.365Z,11.40
2019-04-24T19:52:13.925Z,11.40
2019-04-24T19:54:46.497Z,11.50
2019-04-24T19:57:24.070Z,11.50
2019-04-24T19:59:54.349Z,11.50
2019-04-24T20:02:27.365Z,11.40
2019-04-24T20:05:00.301Z,11.40
2019-04-24T20:07:33.733Z,11.00
2019-04-24T20:10:32.738Z,10.90
2019-04-24T20:13:06.252Z,10.90
2019-04-24T20:15:39.203Z,11.00
2019-04-24T20:18:13.521Z,11.10
2019-04-24T20:20:46.420Z,11.20
2019-04-24T20:23:32.312Z,11.10
2019-04-24T20:25:54.210Z,11.10
2019-04-24T20:28:27.211Z,10.90
2019-04-24T20:31:01.582Z,10.90
2019-04-24T20:33:34.646Z,11.10
2019-04-24T20:36:07.729Z,11.10
2019-04-24T20:38:42.061Z,11.10
2019-04-24T20:41:15.448Z,11.10
2019-04-24T20:43:48.393Z,11.00
2019-04-24T20:46:21.832Z,10.90
2019-04-24T20:48:54.786Z,10.90
2019-04-24T20:51:27.654Z,10.70
2019-04-24T20:54:01.504Z,10.50
2019-04-24T20:56:34.418Z,10.30
2019-04-24T20:59:07.398Z,10.20
2019-04-24T21:01:41.746Z,10.10
2019-04-24T21:04:15.114Z,10.10
2019-04-24T21:07:01.925Z,10.00
2019-04-24T21:09:58.795Z,9.90
2019-04-24T21:12:31.802Z,9.80
2019-04-24T21:15:31.151Z,9.60
2019-04-24T21:18:05.421Z,9.40
2019-04-24T21:20:38.306Z,9.10
2019-04-24T21:23:11.206Z,9.00
2019-04-24T21:25:44.095Z,9.00
2019-04-24T21:28:16.980Z,9.00
2019-04-24T21:30:49.935Z,9.00
2019-04-24T21:33:23.197Z,9.10
2019-04-24T21:35:56.067Z,9.00
2019-04-24T21:38:29.296Z,9.10
2019-04-24T21:41:02.167Z,9.00
2019-04-24T21:43:35.978Z,9.00
2019-04-24T21:46:09.038Z,9.00
2019-04-24T21:48:42.082Z,8.90
2019-04-24T21:51:14.911Z,9.00
2019-04-24T21:53:47.714Z,9.00
2019-04-24T21:56:22.284Z,9.00
2019-04-24T21:58:55.308Z,9.00
2019-04-24T22:01:52.710Z,9.00
2019-04-24T22:04:45.566Z,9.10
2019-04-24T22:07:34.932Z,9.10
2019-04-24T22:10:06.908Z,9.10
2019-04-24T22:12:42.186Z,9.10
2019-04-24T22:15:16.830Z,9.10
2019-04-24T22:17:49.653Z,9.10
2019-04-24T22:20:31.727Z,9.10
2019-04-24T22:23:11.713Z,9.10
2019-04-24T22:25:50.173Z,9.10
2019-04-24T22:28:23.010Z,9.10
2019-04-24T22:31:15.596Z,8.90
2019-04-24T22:33:54.187Z,8.60
2019-04-24T22:36:27.475Z,8.60
2019-04-24T22:39:22.706Z,8.60
2019-04-24T22:41:56.542Z,8.60
2019-04-24T22:44:29.728Z,8.70
2019-04-24T22:47:02.900Z,8.80
2019-04-24T22:49:36.691Z,8.80
2019-04-24T22:52:09.696Z,8.60
2019-04-24T22:54:43.495Z,8.50
2019-04-24T22:57:16.578Z,8.40
2019-04-24T22:59:49.369Z,8.30
2019-04-24T23:02:22.301Z,8.30
2019-04-24T23:04:55.164Z,8.30
2019-04-24T23:07:30.468Z,8.20
2019-04-24T23:10:04.323Z,8.20
2019-04-24T23:12:37.114Z,8.20
2019-04-24T23:15:10.430Z,8.20
2019-04-24T23:17:43.165Z,8.10
2019-04-24T23:20:16.414Z,8.10
2019-04-24T23:23:11.633Z,8.20
2019-04-24T23:25:53.710Z,8.10
2019-04-24T23:28:44.618Z,8.00
2019-04-24T23:31:35.592Z,7.90
2019-04-24T23:34:11.481Z,7.80
2019-04-24T23:36:44.564Z,7.80
2019-04-24T23:39:17.903Z,7.80
2019-04-24T23:41:50.744Z,7.80
2019-04-24T23:44:23.563Z,7.80
2019-04-24T23:46:56.689Z,7.90
2019-04-24T23:49:29.551Z,7.90
2019-04-24T23:52:02.448Z,8.10
2019-04-24T23:54:36.152Z,8.10
2019-04-24T23:57:08.991Z,8.00
2019-04-24T23:59:44.472Z,7.90
